PWSweather.com
Personal Weather Stations
Station Observations
TARRYHILL
Tarrytown, NY 10591

Tarrytown, NY 10591

Lat: 41.05185, Lon: -73.85296

Elevation: 341

Station Type: Davis Vantage Vue

www.tarrytownnyweather.com

High Low Average
Temperature 69.6°F20.9°C 45.3°F7.4°C 55.8°F13.2°C
Dew Point 45.3°F7.4°C 28.9°F-1.7°C 34.0°F1.1°C
Winds 5.3 mph 8.5 kmh Calm Calm 2.0 mph SSW3.2 kmh SSW
Wind Gusts 11.0 mph17.7 kmh -- 4.0 mph6.4 kmh
Humidity 74% 25% 46%
Pressure 30.42 in1030.1 mb 30.18 in1022.0 mb -
Precipitation 0.00 in0.0 mm - -
Hour Temp Dew Point Humidity Winds Wind Gusts Pressure Precip Precip Rate Daily Precip Total
12:00 AM 57.4°F14.1°C 36.8°F2.7°C 46% 2.1 mph SW3.4 kmh SW 10.0 mph16.1 kmh 30.15 in1021.0 mb - 0.00 in0.0 mm 0.00 in0.0 mm
12:10 AM 57.1°F13.9°C 36.5°F2.5°C 46% 2.0 mph E3.2 kmh E 2.0 mph3.2 kmh 30.15 in1021.0 mb - 0.00 in0.0 mm 0.00 in0.0 mm
12:20 AM 56.7°F13.7°C 37.2°F2.9°C 48% 2.1 mph N3.4 kmh N 6.0 mph9.7 kmh 30.15 in1021.0 mb - 0.00 in0.0 mm 0.00 in0.0 mm
12:30 AM 56.3°F13.5°C 37.4°F3.0°C 49% 3.0 mph WNW4.8 kmh WNW 6.0 mph9.7 kmh 30.16 in1021.3 mb - 0.00 in0.0 mm 0.00 in0.0 mm
12:40 AM 55.9°F13.3°C 37.5°F3.1°C 50% 1.5 mph E2.4 kmh E 5.0 mph8.0 kmh 30.16 in1021.3 mb - 0.00 in0.0 mm 0.00 in0.0 mm
12:50 AM 55.4°F13.0°C 37.1°F2.8°C 50% 2.1 mph SSW3.4 kmh SSW 5.0 mph8.0 kmh 30.17 in1021.7 mb - 0.00 in0.0 mm 0.00 in0.0 mm
01:00 AM 55.0°F12.8°C 36.7°F2.6°C 50% 1.1 mph N1.8 kmh N 1.0 mph1.6 kmh 30.18 in1022.0 mb - 0.00 in0.0 mm 0.00 in0.0 mm
01:10 AM 54.5°F12.5°C 35.7°F2.1°C 49% 1.7 mph NW2.7 kmh NW 5.0 mph8.0 kmh 30.18 in1022.0 mb - 0.00 in0.0 mm 0.00 in0.0 mm
01:20 AM 54.1°F12.3°C 35.4°F1.9°C 49% 2.8 mph E4.5 kmh E 5.0 mph8.0 kmh 30.19 in1022.4 mb - 0.00 in0.0 mm 0.00 in0.0 mm
01:30 AM 53.7°F12.1°C 34.4°F1.3°C 48% 3.0 mph E4.8 kmh E 5.0 mph8.0 kmh 30.20 in1022.7 mb - 0.00 in0.0 mm 0.00 in0.0 mm
01:40 AM 53.3°F11.8°C 34.6°F1.4°C 49% 1.7 mph W2.7 kmh W 3.0 mph4.8 kmh 30.20 in1022.7 mb - 0.00 in0.0 mm 0.00 in0.0 mm
01:50 AM 53.0°F11.7°C 35.3°F1.8°C 51% 1.8 mph WSW2.9 kmh WSW 5.0 mph8.0 kmh 30.21 in1023.0 mb - 0.00 in0.0 mm 0.00 in0.0 mm
02:00 AM 52.6°F11.4°C 32.4°F0.2°C 46% 1.7 mph W2.7 kmh W 5.0 mph8.0 kmh 30.21 in1023.0 mb - 0.00 in0.0 mm 0.00 in0.0 mm
02:10 AM 52.3°F11.3°C 30.4°F-0.9°C 43% 4.0 mph W6.4 kmh W 7.0 mph11.3 kmh 30.21 in1023.0 mb - 0.00 in0.0 mm 0.00 in0.0 mm
02:20 AM 52.0°F11.1°C 29.6°F-1.3°C 42% 5.3 mph NNE8.5 kmh NNE 7.0 mph11.3 kmh 30.21 in1023.0 mb - 0.00 in0.0 mm 0.00 in0.0 mm
02:30 AM 51.6°F10.9°C 29.2°F-1.6°C 42% 3.5 mph WSW5.6 kmh WSW 6.0 mph9.7 kmh 30.21 in1023.0 mb - 0.00 in0.0 mm 0.00 in0.0 mm
02:40 AM 51.3°F10.7°C 28.9°F-1.7°C 42% 2.0 mph NNW3.2 kmh NNW 4.0 mph6.4 kmh 30.21 in1023.0 mb - 0.00 in0.0 mm 0.00 in0.0 mm
02:50 AM 51.0°F10.6°C 29.3°F-1.5°C 43% 0.8 mph SW1.3 kmh SW 3.0 mph4.8 kmh 30.22 in1023.4 mb - 0.00 in0.0 mm 0.00 in0.0 mm
03:00 AM 50.7°F10.4°C 29.5°F-1.4°C 44% 2.5 mph SW4.0 kmh SW 6.0 mph9.7 kmh 30.23 in1023.7 mb - 0.00 in0.0 mm 0.00 in0.0 mm
03:10 AM 50.3°F10.2°C 29.7°F-1.3°C 45% 3.1 mph WSW5.0 kmh WSW 8.0 mph12.9 kmh 30.24 in1024.0 mb - 0.00 in0.0 mm 0.00 in0.0 mm
03:20 AM 50.0°F10.0°C 29.5°F-1.4°C 45% 1.2 mph SSW1.9 kmh SSW 5.0 mph8.0 kmh 30.24 in1024.0 mb - 0.00 in0.0 mm 0.00 in0.0 mm
03:30 AM 49.7°F9.8°C 29.2°F-1.6°C 45% 2.2 mph SE3.5 kmh SE 5.0 mph8.0 kmh 30.25 in1024.4 mb - 0.00 in0.0 mm 0.00 in0.0 mm
03:40 AM 49.5°F9.7°C 29.6°F-1.3°C 46% 2.2 mph WNW3.5 kmh WNW 5.0 mph8.0 kmh 30.25 in1024.4 mb - 0.00 in0.0 mm 0.00 in0.0 mm
03:50 AM 49.5°F9.7°C 30.1°F-1.1°C 47% 2.7 mph S4.3 kmh S 5.0 mph8.0 kmh 30.26 in1024.7 mb - 0.00 in0.0 mm 0.00 in0.0 mm
04:00 AM 49.2°F9.6°C 30.3°F-0.9°C 48% 2.0 mph SW3.2 kmh SW 5.0 mph8.0 kmh 30.27 in1025.1 mb - 0.00 in0.0 mm 0.00 in0.0 mm
04:10 AM 48.9°F9.4°C 30.5°F-0.8°C 49% 4.9 mph NW7.9 kmh NW 11.0 mph17.7 kmh 30.27 in1025.1 mb - 0.00 in0.0 mm 0.00 in0.0 mm
04:20 AM 48.6°F9.2°C 30.3°F-0.9°C 49% 2.1 mph SSW3.4 kmh SSW 6.0 mph9.7 kmh 30.28 in1025.4 mb - 0.00 in0.0 mm 0.00 in0.0 mm
04:30 AM 48.3°F9.1°C 30.0°F-1.1°C 49% 2.1 mph W3.4 kmh W 7.0 mph11.3 kmh 30.29 in1025.7 mb - 0.00 in0.0 mm 0.00 in0.0 mm
04:40 AM 47.9°F8.8°C 30.2°F-1.0°C 50% 1.1 mph SW1.8 kmh SW 3.0 mph4.8 kmh 30.29 in1025.7 mb - 0.00 in0.0 mm 0.00 in0.0 mm
04:50 AM 47.5°F8.6°C 30.7°F-0.7°C 52% 0.7 mph ENE1.1 kmh ENE 4.0 mph6.4 kmh 30.29 in1025.7 mb - 0.00 in0.0 mm 0.00 in0.0 mm
05:00 AM 47.2°F8.4°C 30.4°F-0.9°C 52% 2.0 mph NW3.2 kmh NW 3.0 mph4.8 kmh 30.30 in1026.1 mb - 0.00 in0.0 mm 0.00 in0.0 mm
05:10 AM 46.8°F8.2°C 30.6°F-0.8°C 53% 1.2 mph W1.9 kmh W 3.0 mph4.8 kmh 30.30 in1026.1 mb - 0.00 in0.0 mm 0.00 in0.0 mm
05:20 AM 46.6°F8.1°C 30.8°F-0.7°C 54% 0.3 mph ENE0.5 kmh ENE 1.0 mph1.6 kmh 30.31 in1026.4 mb - 0.00 in0.0 mm 0.00 in0.0 mm
05:30 AM 46.2°F7.9°C 30.5°F-0.8°C 54% 3.1 mph NW5.0 kmh NW 7.0 mph11.3 kmh 30.31 in1026.4 mb - 0.00 in0.0 mm 0.00 in0.0 mm
05:40 AM 46.0°F7.8°C 30.3°F-0.9°C 54% 3.5 mph NE5.6 kmh NE 5.0 mph8.0 kmh 30.32 in1026.8 mb - 0.00 in0.0 mm 0.00 in0.0 mm
05:50 AM 45.8°F7.7°C 30.1°F-1.1°C 54% 3.6 mph NE5.8 kmh NE 6.0 mph9.7 kmh 30.32 in1026.8 mb - 0.00 in0.0 mm 0.00 in0.0 mm
06:00 AM 45.6°F7.6°C 30.3°F-0.9°C 55% 0.7 mph NNE1.1 kmh NNE 1.0 mph1.6 kmh 30.33 in1027.1 mb - 0.00 in0.0 mm 0.00 in0.0 mm
06:10 AM 45.4°F7.4°C 31.0°F-0.6°C 57% 1.0 mph NE1.6 kmh NE 3.0 mph4.8 kmh 30.33 in1027.1 mb - 0.00 in0.0 mm 0.00 in0.0 mm
06:20 AM 45.3°F7.4°C 31.0°F-0.6°C 57% 0.4 mph NE0.6 kmh NE 2.0 mph3.2 kmh 30.34 in1027.4 mb - 0.00 in0.0 mm 0.00 in0.0 mm
06:30 AM 45.3°F7.4°C 31.0°F-0.6°C 57% 0.6 mph NE1.0 kmh NE 1.0 mph1.6 kmh 30.34 in1027.4 mb - 0.00 in0.0 mm 0.00 in0.0 mm
06:40 AM 45.3°F7.4°C 31.0°F-0.6°C 57% 2.3 mph NW3.7 kmh NW 6.0 mph9.7 kmh 30.35 in1027.8 mb - 0.00 in0.0 mm 0.00 in0.0 mm
06:50 AM 45.3°F7.4°C 31.4°F-0.3°C 58% 1.4 mph NNE2.3 kmh NNE 6.0 mph9.7 kmh 30.35 in1027.8 mb - 0.00 in0.0 mm 0.00 in0.0 mm
07:00 AM 45.5°F7.5°C 32.0°F0.0°C 59% 0.6 mph NNE1.0 kmh NNE 8.0 mph12.9 kmh 30.36 in1028.1 mb - 0.00 in0.0 mm 0.00 in0.0 mm
07:10 AM 45.6°F7.6°C 31.7°F-0.2°C 58% 2.6 mph NE4.2 kmh NE 8.0 mph12.9 kmh 30.36 in1028.1 mb - 0.00 in0.0 mm 0.00 in0.0 mm
07:20 AM 45.7°F7.6°C 32.2°F0.1°C 59% 2.1 mph ENE3.4 kmh ENE 6.0 mph9.7 kmh 30.37 in1028.4 mb - 0.00 in0.0 mm 0.00 in0.0 mm
07:30 AM 45.9°F7.7°C 31.5°F-0.3°C 57% 1.4 mph NNE2.3 kmh NNE 4.0 mph6.4 kmh 30.37 in1028.4 mb - 0.00 in0.0 mm 0.00 in0.0 mm
07:40 AM 46.5°F8.1°C 32.5°F0.3°C 58% 4.1 mph W6.6 kmh W 8.0 mph12.9 kmh 30.37 in1028.4 mb - 0.00 in0.0 mm 0.00 in0.0 mm
07:50 AM 47.2°F8.4°C 32.3°F0.2°C 56% 1.8 mph N2.9 kmh N 5.0 mph8.0 kmh 30.37 in1028.4 mb - 0.00 in0.0 mm 0.00 in0.0 mm
08:00 AM 47.8°F8.8°C 32.4°F0.2°C 55% 2.4 mph NW3.9 kmh NW 8.0 mph12.9 kmh 30.38 in1028.8 mb - 0.00 in0.0 mm 0.00 in0.0 mm
08:10 AM 48.2°F9.0°C 31.4°F-0.3°C 52% 2.7 mph NW4.3 kmh NW 8.0 mph12.9 kmh 30.38 in1028.8 mb - 0.00 in0.0 mm 0.00 in0.0 mm
08:20 AM 48.3°F9.1°C 32.4°F0.2°C 54% 1.0 mph NW1.6 kmh NW 2.0 mph3.2 kmh 30.38 in1028.8 mb - 0.00 in0.0 mm 0.00 in0.0 mm
08:30 AM 48.6°F9.2°C 31.3°F-0.4°C 51% 2.5 mph NW4.0 kmh NW 7.0 mph11.3 kmh 30.38 in1028.8 mb - 0.00 in0.0 mm 0.00 in0.0 mm
08:40 AM 48.8°F9.3°C 31.0°F-0.6°C 50% 1.5 mph NNE2.4 kmh NNE 5.0 mph8.0 kmh 30.39 in1029.1 mb - 0.00 in0.0 mm 0.00 in0.0 mm
08:50 AM 49.0°F9.4°C 31.2°F-0.4°C 50% 2.9 mph NW4.7 kmh NW 6.0 mph9.7 kmh 30.40 in1029.5 mb - 0.00 in0.0 mm 0.00 in0.0 mm
09:00 AM 49.1°F9.5°C 31.7°F-0.2°C 51% 0.8 mph NW1.3 kmh NW 2.0 mph3.2 kmh 30.40 in1029.5 mb - 0.00 in0.0 mm 0.00 in0.0 mm
09:10 AM 49.5°F9.7°C 30.6°F-0.8°C 48% 1.5 mph WNW2.4 kmh WNW 5.0 mph8.0 kmh 30.41 in1029.8 mb - 0.00 in0.0 mm 0.00 in0.0 mm
09:20 AM 49.8°F9.9°C 30.9°F-0.6°C 48% 1.3 mph NW2.1 kmh NW 3.0 mph4.8 kmh 30.41 in1029.8 mb - 0.00 in0.0 mm 0.00 in0.0 mm
09:30 AM 50.0°F10.0°C 31.1°F-0.5°C 48% 2.9 mph NE4.7 kmh NE 8.0 mph12.9 kmh 30.41 in1029.8 mb - 0.00 in0.0 mm 0.00 in0.0 mm
09:40 AM 50.7°F10.4°C 30.6°F-0.8°C 46% 1.0 mph E1.6 kmh E 3.0 mph4.8 kmh 30.41 in1029.8 mb - 0.00 in0.0 mm 0.00 in0.0 mm
09:50 AM 51.0°F10.6°C 30.9°F-0.6°C 46% 2.0 mph WSW3.2 kmh WSW 4.0 mph6.4 kmh 30.41 in1029.8 mb - 0.00 in0.0 mm 0.00 in0.0 mm
10:00 AM 51.2°F10.7°C 30.0°F-1.1°C 44% 2.7 mph W4.3 kmh W 5.0 mph8.0 kmh 30.41 in1029.8 mb - 0.00 in0.0 mm 0.00 in0.0 mm
10:10 AM 52.0°F11.1°C 30.2°F-1.0°C 43% 1.7 mph S2.7 kmh S 3.0 mph4.8 kmh 30.42 in1030.1 mb - 0.00 in0.0 mm 0.00 in0.0 mm
10:20 AM 51.4°F10.8°C 29.6°F-1.3°C 43% 1.7 mph WNW2.7 kmh WNW 2.0 mph3.2 kmh 30.42 in1030.1 mb - 0.00 in0.0 mm 0.00 in0.0 mm
10:30 AM 51.7°F10.9°C 29.9°F-1.2°C 43% 1.7 mph NW2.7 kmh NW 8.0 mph12.9 kmh 30.42 in1030.1 mb - 0.00 in0.0 mm 0.00 in0.0 mm
10:40 AM 52.2°F11.2°C 29.8°F-1.2°C 42% 3.4 mph W5.5 kmh W 7.0 mph11.3 kmh 30.42 in1030.1 mb - 0.00 in0.0 mm 0.00 in0.0 mm
10:50 AM 52.9°F11.6°C 31.0°F-0.6°C 43% 2.8 mph NE4.5 kmh NE 9.0 mph14.5 kmh 30.42 in1030.1 mb - 0.00 in0.0 mm 0.00 in0.0 mm
11:00 AM 53.6°F12.0°C 29.8°F-1.2°C 40% 4.1 mph NW6.6 kmh NW 11.0 mph17.7 kmh 30.42 in1030.1 mb - 0.00 in0.0 mm 0.00 in0.0 mm
11:10 AM 53.7°F12.1°C 31.7°F-0.2°C 43% 2.2 mph NW3.5 kmh NW 6.0 mph9.7 kmh 30.42 in1030.1 mb - 0.00 in0.0 mm 0.00 in0.0 mm
11:20 AM 53.4°F11.9°C 31.5°F-0.3°C 43% 0.4 mph WSW0.6 kmh WSW 2.0 mph3.2 kmh 30.42 in1030.1 mb - 0.00 in0.0 mm 0.00 in0.0 mm
11:30 AM 54.3°F12.4°C 31.7°F-0.2°C 42% 1.7 mph W2.7 kmh W 4.0 mph6.4 kmh 30.42 in1030.1 mb - 0.00 in0.0 mm 0.00 in0.0 mm
11:40 AM 55.5°F13.1°C 32.8°F0.4°C 42% 1.6 mph WSW2.6 kmh WSW 5.0 mph8.0 kmh 30.42 in1030.1 mb - 0.00 in0.0 mm 0.00 in0.0 mm
11:50 AM 54.6°F12.6°C 30.1°F-1.1°C 39% 1.9 mph ESE3.1 kmh ESE 4.0 mph6.4 kmh 30.42 in1030.1 mb - 0.00 in0.0 mm 0.00 in0.0 mm
12:00 PM 55.0°F12.8°C 31.7°F-0.2°C 41% 1.3 mph NW2.1 kmh NW 2.0 mph3.2 kmh 30.41 in1029.8 mb - 0.00 in0.0 mm 0.00 in0.0 mm
12:10 PM 56.0°F13.3°C 30.7°F-0.7°C 38% 1.7 mph NNW2.7 kmh NNW 5.0 mph8.0 kmh 30.41 in1029.8 mb - 0.00 in0.0 mm 0.00 in0.0 mm
12:20 PM 56.4°F13.6°C 31.7°F-0.2°C 39% 1.7 mph NE2.7 kmh NE 4.0 mph6.4 kmh 30.41 in1029.8 mb - 0.00 in0.0 mm 0.00 in0.0 mm
12:30 PM 56.7°F13.7°C 30.7°F-0.7°C 37% 0.3 mph W0.5 kmh W 1.0 mph1.6 kmh 30.41 in1029.8 mb - 0.00 in0.0 mm 0.00 in0.0 mm
12:40 PM 57.3°F14.1°C 31.9°F-0.1°C 38% 2.2 mph NW3.5 kmh NW 6.0 mph9.7 kmh 30.40 in1029.5 mb - 0.00 in0.0 mm 0.00 in0.0 mm
12:50 PM 57.4°F14.1°C 29.9°F-1.2°C 35% 1.5 mph SW2.4 kmh SW 7.0 mph11.3 kmh 30.40 in1029.5 mb - 0.00 in0.0 mm 0.00 in0.0 mm
01:00 PM 57.4°F14.1°C 30.7°F-0.7°C 36% 2.2 mph N3.5 kmh N 4.0 mph6.4 kmh 30.40 in1029.5 mb - 0.00 in0.0 mm 0.00 in0.0 mm
01:10 PM 58.9°F14.9°C 31.2°F-0.4°C 35% 2.2 mph S3.5 kmh S 4.0 mph6.4 kmh 30.40 in1029.5 mb - 0.00 in0.0 mm 0.00 in0.0 mm
01:20 PM 59.0°F15.0°C 30.7°F-0.7°C 34% 1.3 mph NNW2.1 kmh NNW 2.0 mph3.2 kmh 30.39 in1029.1 mb - 0.00 in0.0 mm 0.00 in0.0 mm
01:30 PM 59.5°F15.3°C 31.1°F-0.5°C 34% 0.4 mph NW0.6 kmh NW 2.0 mph3.2 kmh 30.39 in1029.1 mb - 0.00 in0.0 mm 0.00 in0.0 mm
01:40 PM 59.5°F15.3°C 31.1°F-0.5°C 34% 2.6 mph SE4.2 kmh SE 3.0 mph4.8 kmh 30.39 in1029.1 mb - 0.00 in0.0 mm 0.00 in0.0 mm
01:50 PM 59.6°F15.3°C 29.7°F-1.3°C 32% 2.5 mph W4.0 kmh W 3.0 mph4.8 kmh 30.39 in1029.1 mb - 0.00 in0.0 mm 0.00 in0.0 mm
02:00 PM 60.0°F15.6°C 31.5°F-0.3°C 34% 1.2 mph ENE1.9 kmh ENE 2.0 mph3.2 kmh 30.39 in1029.1 mb - 0.00 in0.0 mm 0.00 in0.0 mm
02:10 PM 61.1°F16.2°C 33.2°F0.7°C 35% 1.1 mph WSW1.8 kmh WSW 2.0 mph3.2 kmh 30.38 in1028.8 mb - 0.00 in0.0 mm 0.00 in0.0 mm
02:20 PM 61.8°F16.6°C 33.1°F0.6°C 34% 0.1 mph NE0.2 kmh NE 1.0 mph1.6 kmh 30.38 in1028.8 mb - 0.00 in0.0 mm 0.00 in0.0 mm
02:30 PM 61.8°F16.6°C 32.4°F0.2°C 33% 1.3 mph SW2.1 kmh SW 3.0 mph4.8 kmh 30.38 in1028.8 mb - 0.00 in0.0 mm 0.00 in0.0 mm
02:40 PM 63.4°F17.4°C 33.0°F0.6°C 32% 2.3 mph WNW3.7 kmh WNW 4.0 mph6.4 kmh 30.37 in1028.4 mb - 0.00 in0.0 mm 0.00 in0.0 mm
02:50 PM 63.0°F17.2°C 31.9°F-0.1°C 31% 1.2 mph WSW1.9 kmh WSW 5.0 mph8.0 kmh 30.37 in1028.4 mb - 0.00 in0.0 mm 0.00 in0.0 mm
03:00 PM 62.8°F17.1°C 31.7°F-0.2°C 31% 2.6 mph W4.2 kmh W 5.0 mph8.0 kmh 30.37 in1028.4 mb - 0.00 in0.0 mm 0.00 in0.0 mm
03:10 PM 63.7°F17.6°C 34.0°F1.1°C 33% 1.3 mph N2.1 kmh N 6.0 mph9.7 kmh 30.37 in1028.4 mb - 0.00 in0.0 mm 0.00 in0.0 mm
03:20 PM 63.3°F17.4°C 31.3°F-0.4°C 30% 2.6 mph N4.2 kmh N 4.0 mph6.4 kmh 30.36 in1028.1 mb - 0.00 in0.0 mm 0.00 in0.0 mm
03:30 PM 63.6°F17.6°C 30.7°F-0.7°C 29% 2.1 mph W3.4 kmh W 2.0 mph3.2 kmh 30.36 in1028.1 mb - 0.00 in0.0 mm 0.00 in0.0 mm
03:40 PM 65.1°F18.4°C 31.2°F-0.4°C 28% 2.5 mph NW4.0 kmh NW 5.0 mph8.0 kmh 30.36 in1028.1 mb - 0.00 in0.0 mm 0.00 in0.0 mm
03:50 PM 63.9°F17.7°C 31.0°F-0.6°C 29% 1.1 mph W1.8 kmh W 4.0 mph6.4 kmh 30.35 in1027.8 mb - 0.00 in0.0 mm 0.00 in0.0 mm
04:00 PM 64.9°F18.3°C 31.8°F-0.1°C 29% 2.4 mph SSW3.9 kmh SSW 5.0 mph8.0 kmh 30.35 in1027.8 mb - 0.00 in0.0 mm 0.00 in0.0 mm
04:10 PM 65.4°F18.6°C 31.4°F-0.3°C 28% 0.5 mph WSW0.8 kmh WSW 2.0 mph3.2 kmh 30.34 in1027.4 mb - 0.00 in0.0 mm 0.00 in0.0 mm
04:20 PM 66.0°F18.9°C 32.0°F0.0°C 28% 2.1 mph E3.4 kmh E 3.0 mph4.8 kmh 30.34 in1027.4 mb - 0.00 in0.0 mm 0.00 in0.0 mm
04:30 PM 66.3°F19.1°C 31.3°F-0.4°C 27% 2.4 mph NE3.9 kmh NE 5.0 mph8.0 kmh 30.34 in1027.4 mb - 0.00 in0.0 mm 0.00 in0.0 mm
04:40 PM 66.8°F19.3°C 32.6°F0.3°C 28% 1.9 mph WSW3.1 kmh WSW 5.0 mph8.0 kmh 30.34 in1027.4 mb - 0.00 in0.0 mm 0.00 in0.0 mm
04:50 PM 67.6°F19.8°C 32.4°F0.2°C 27% 0.6 mph WSW1.0 kmh WSW 1.0 mph1.6 kmh 30.34 in1027.4 mb - 0.00 in0.0 mm 0.00 in0.0 mm
05:00 PM 66.9°F19.4°C 31.8°F-0.1°C 27% 1.2 mph W1.9 kmh W 2.0 mph3.2 kmh 30.34 in1027.4 mb - 0.00 in0.0 mm 0.00 in0.0 mm
05:10 PM 67.5°F19.7°C 31.4°F-0.3°C 26% 4.1 mph S6.6 kmh S 6.0 mph9.7 kmh 30.33 in1027.1 mb - 0.00 in0.0 mm 0.00 in0.0 mm
05:20 PM 68.1°F20.1°C 31.9°F-0.1°C 26% 2.5 mph SSW4.0 kmh SSW 5.0 mph8.0 kmh 30.33 in1027.1 mb - 0.00 in0.0 mm 0.00 in0.0 mm
05:30 PM 68.0°F20.0°C 32.7°F0.4°C 27% 1.0 mph WSW1.6 kmh WSW 3.0 mph4.8 kmh 30.33 in1027.1 mb - 0.00 in0.0 mm 0.00 in0.0 mm
05:40 PM 68.3°F20.2°C 33.9°F1.1°C 28% 1.4 mph SW2.3 kmh SW 3.0 mph4.8 kmh 30.33 in1027.1 mb - 0.00 in0.0 mm 0.00 in0.0 mm
05:50 PM 69.5°F20.8°C 34.0°F1.1°C 27% 2.0 mph SW3.2 kmh SW 6.0 mph9.7 kmh 30.33 in1027.1 mb - 0.00 in0.0 mm 0.00 in0.0 mm
06:00 PM 68.5°F20.3°C 34.1°F1.2°C 28% 0.2 mph WSW0.3 kmh WSW 1.0 mph1.6 kmh 30.33 in1027.1 mb - 0.00 in0.0 mm 0.00 in0.0 mm
06:10 PM 68.6°F20.3°C 31.4°F-0.3°C 25% 3.4 mph SW5.5 kmh SW 5.0 mph8.0 kmh 30.32 in1026.8 mb - 0.00 in0.0 mm 0.00 in0.0 mm
06:20 PM 68.8°F20.4°C 32.5°F0.3°C 26% 1.7 mph SSW2.7 kmh SSW 3.0 mph4.8 kmh 30.32 in1026.8 mb - 0.00 in0.0 mm 0.00 in0.0 mm
06:30 PM 69.1°F20.6°C 33.7°F0.9°C 27% 1.4 mph SW2.3 kmh SW 1.0 mph1.6 kmh 30.32 in1026.8 mb - 0.00 in0.0 mm 0.00 in0.0 mm
06:40 PM 69.3°F20.7°C 31.9°F-0.1°C 25% 2.5 mph SW4.0 kmh SW 4.0 mph6.4 kmh 30.32 in1026.8 mb - 0.00 in0.0 mm 0.00 in0.0 mm
06:50 PM 69.5°F20.8°C 32.1°F0.1°C 25% 1.0 mph W1.6 kmh W 4.0 mph6.4 kmh 30.32 in1026.8 mb - 0.00 in0.0 mm 0.00 in0.0 mm
07:00 PM 69.6°F20.9°C 35.0°F1.7°C 28% 0.4 mph SW0.6 kmh SW 1.0 mph1.6 kmh 30.32 in1026.8 mb - 0.00 in0.0 mm 0.00 in0.0 mm
07:10 PM 68.9°F20.5°C 32.6°F0.3°C 26% 0.8 mph WNW1.3 kmh WNW 2.0 mph3.2 kmh 30.32 in1026.8 mb - 0.00 in0.0 mm 0.00 in0.0 mm
07:20 PM 68.8°F20.4°C 34.3°F1.3°C 28% 0.2 mph SW0.3 kmh SW 2.0 mph3.2 kmh 30.32 in1026.8 mb - 0.00 in0.0 mm 0.00 in0.0 mm
07:30 PM 69.2°F20.7°C 36.4°F2.4°C 30% 0.5 mph WSW0.8 kmh WSW 2.0 mph3.2 kmh 30.32 in1026.8 mb - 0.00 in0.0 mm 0.00 in0.0 mm
07:40 PM 67.7°F19.8°C 35.2°F1.8°C 30% 0.2 mph SE0.3 kmh SE -- 30.32 in1026.8 mb - 0.00 in0.0 mm 0.00 in0.0 mm
07:50 PM 67.1°F19.5°C 33.8°F1.0°C 29% Calm Calm -- 30.32 in1026.8 mb - 0.00 in0.0 mm 0.00 in0.0 mm
08:00 PM 65.4°F18.6°C 37.0°F2.8°C 35% Calm Calm -- 30.32 in1026.8 mb - 0.00 in0.0 mm 0.00 in0.0 mm
08:10 PM 62.6°F17.0°C 39.2°F4.0°C 42% 0.3 mph SW0.5 kmh SW -- 30.33 in1027.1 mb - 0.00 in0.0 mm 0.00 in0.0 mm
08:20 PM 61.0°F16.1°C 40.0°F4.4°C 46% 1.2 mph SW1.9 kmh SW 3.0 mph4.8 kmh 30.33 in1027.1 mb - 0.00 in0.0 mm 0.00 in0.0 mm
08:30 PM 59.7°F15.4°C 41.5°F5.3°C 51% 1.4 mph SW2.3 kmh SW 3.0 mph4.8 kmh 30.33 in1027.1 mb - 0.00 in0.0 mm 0.00 in0.0 mm
08:40 PM 58.8°F14.9°C 42.2°F5.7°C 54% Calm Calm -- 30.33 in1027.1 mb - 0.00 in0.0 mm 0.00 in0.0 mm
08:50 PM 58.0°F14.4°C 42.8°F6.0°C 57% 0.2 mph NW0.3 kmh NW 1.0 mph1.6 kmh 30.33 in1027.1 mb - 0.00 in0.0 mm 0.00 in0.0 mm
09:00 PM 57.3°F14.1°C 43.1°F6.2°C 59% 0.8 mph SE1.3 kmh SE 2.0 mph3.2 kmh 30.33 in1027.1 mb - 0.00 in0.0 mm 0.00 in0.0 mm
09:10 PM 56.9°F13.8°C 43.2°F6.2°C 60% 1.0 mph WNW1.6 kmh WNW 3.0 mph4.8 kmh 30.34 in1027.4 mb - 0.00 in0.0 mm 0.00 in0.0 mm
09:20 PM 56.6°F13.7°C 43.3°F6.3°C 61% 0.2 mph SE0.3 kmh SE 3.0 mph4.8 kmh 30.34 in1027.4 mb - 0.00 in0.0 mm 0.00 in0.0 mm
09:30 PM 56.1°F13.4°C 43.3°F6.3°C 62% 0.1 mph SE0.2 kmh SE -- 30.34 in1027.4 mb - 0.00 in0.0 mm 0.00 in0.0 mm
09:40 PM 55.5°F13.1°C 43.5°F6.4°C 64% Calm Calm -- 30.34 in1027.4 mb - 0.00 in0.0 mm 0.00 in0.0 mm
09:50 PM 54.7°F12.6°C 43.6°F6.4°C 66% Calm Calm -- 30.34 in1027.4 mb - 0.00 in0.0 mm 0.00 in0.0 mm
10:00 PM 54.6°F12.6°C 43.5°F6.4°C 66% 0.8 mph SE1.3 kmh SE 4.0 mph6.4 kmh 30.34 in1027.4 mb - 0.00 in0.0 mm 0.00 in0.0 mm
10:10 PM 54.9°F12.7°C 43.3°F6.3°C 65% 0.2 mph SW0.3 kmh SW 4.0 mph6.4 kmh 30.34 in1027.4 mb - 0.00 in0.0 mm 0.00 in0.0 mm
10:20 PM 54.9°F12.7°C 43.4°F6.3°C 65% 0.1 mph S0.2 kmh S -- 30.34 in1027.4 mb - 0.00 in0.0 mm 0.00 in0.0 mm
10:30 PM 54.8°F12.7°C 43.3°F6.3°C 65% Calm Calm -- 30.35 in1027.8 mb - 0.00 in0.0 mm 0.00 in0.0 mm
10:40 PM 54.8°F12.7°C 43.7°F6.5°C 66% 0.1 mph SSW0.2 kmh SSW 1.0 mph1.6 kmh 30.35 in1027.8 mb - 0.00 in0.0 mm 0.00 in0.0 mm
10:50 PM 54.6°F12.6°C 43.9°F6.6°C 67% 0.1 mph SW0.2 kmh SW 1.0 mph1.6 kmh 30.35 in1027.8 mb - 0.00 in0.0 mm 0.00 in0.0 mm
11:00 PM 54.5°F12.5°C 43.8°F6.6°C 67% 0.1 mph SE0.2 kmh SE -- 30.35 in1027.8 mb - 0.00 in0.0 mm 0.00 in0.0 mm
11:10 PM 54.8°F12.7°C 44.0°F6.7°C 67% 0.5 mph S0.8 kmh S 3.0 mph4.8 kmh 30.35 in1027.8 mb - 0.00 in0.0 mm 0.00 in0.0 mm
11:20 PM 54.9°F12.7°C 44.2°F6.8°C 67% 0.2 mph SSW0.3 kmh SSW -- 30.35 in1027.8 mb - 0.00 in0.0 mm 0.00 in0.0 mm
11:30 PM 55.0°F12.8°C 44.6°F7.0°C 68% Calm Calm -- 30.35 in1027.8 mb - 0.00 in0.0 mm 0.00 in0.0 mm
11:40 PM 54.3°F12.4°C 45.1°F7.3°C 71% 0.1 mph E0.2 kmh E 1.0 mph1.6 kmh 30.35 in1027.8 mb - 0.00 in0.0 mm 0.00 in0.0 mm
11:50 PM 53.8°F12.1°C 45.3°F7.4°C 73% 0.1 mph SE0.2 kmh SE 1.0 mph1.6 kmh 30.35 in1027.8 mb - 0.00 in0.0 mm 0.00 in0.0 mm